Time;durP1;ratioP1;P1;durP2;ratioP2;P2;SDS_P1;SDS_P2;PMS_P1;PMS_P2;Temp;Humidity;BMP_temperature;BMP_pressure;BME280_temperature;BME280_humidity;BME280_pressure;Samples;Min_cycle;Max_cycle;Signal;HPM_P1;HPM_P2
2021/10/14 00:01:47;;;;;;;4.93;3.93;;;;;;;8.60;73.56;96530.56;5001463;28;20562;-84
2021/10/14 00:04:15;;;;;;;4.10;3.70;;;;;;;8.59;73.05;96527.19;5001422;28;20275;-84
2021/10/14 00:06:43;;;;;;;4.00;3.60;;;;;;;8.58;73.11;96535.03;5002160;28;20238;-84
2021/10/14 00:09:11;;;;;;;4.03;3.67;;;;;;;8.58;73.07;96538.41;5020263;28;20229;-83
2021/10/14 00:11:37;;;;;;;4.27;3.43;;;;;;;8.56;73.01;96530.03;5021371;28;20780;-82
2021/10/14 00:14:10;;;;;;;4.90;3.77;;;;;;;8.54;73.18;96537.06;5021164;28;20203;-83
2021/10/14 00:16:40;;;;;;;4.40;4.00;;;;;;;8.52;73.28;96533.84;5021592;28;20203;-83
2021/10/14 00:19:08;;;;;;;6.53;4.20;;;;;;;8.52;73.02;96538.16;5008500;28;20223;-81
2021/10/14 00:21:38;;;;;;;5.17;3.90;;;;;;;8.48;73.29;96540.19;5000963;28;20622;-83
2021/10/14 00:24:11;;;;;;;4.47;3.87;;;;;;;8.47;73.57;96532.63;5001211;28;20203;-84
2021/10/14 00:26:39;;;;;;;3.77;3.47;;;;;;;8.47;73.45;96538.56;5000776;28;20199;-83
2021/10/14 00:29:14;;;;;;;4.37;3.97;;;;;;;8.49;73.28;96538.44;5000486;28;20227;-84
2021/10/14 00:32:01;;;;;;;4.87;4.13;;;;;;;8.46;73.50;96534.41;5000655;28;20223;-84
2021/10/14 00:34:38;;;;;;;4.03;3.70;;;;;;;8.48;73.20;96529.91;5000974;28;20207;-84
2021/10/14 00:37:04;;;;;;;6.47;4.20;;;;;;;8.48;73.23;96523.97;4999985;28;20286;-84
2021/10/14 00:39:34;;;;;;;4.37;3.93;;;;;;;8.42;73.71;96525.38;5000758;28;20208;-84
2021/10/14 00:42:04;;;;;;;4.87;4.20;;;;;;;8.39;73.95;96517.94;5000829;28;20237;-84
2021/10/14 00:44:42;;;;;;;4.53;4.13;;;;;;;8.40;73.47;96524.69;5000508;28;20625;-84
2021/10/14 00:47:21;;;;;;;4.43;4.03;;;;;;;8.39;73.48;96517.94;5000562;28;21254;-84
2021/10/14 00:49:55;;;;;;;6.47;4.47;;;;;;;8.35;73.39;96514.03;5001433;28;20214;-84
2021/10/14 00:52:35;;;;;;;4.77;3.97;;;;;;;8.29;73.61;96515.34;5000498;28;20195;-85
2021/10/14 00:55:14;;;;;;;5.07;4.10;;;;;;;8.28;73.64;96520.63;5000577;28;20207;-84
2021/10/14 00:57:49;;;;;;;4.17;3.83;;;;;;;8.27;73.99;96522.38;5000308;28;20286;-84
2021/10/14 01:00:22;;;;;;;4.67;4.20;;;;;;;8.25;74.05;96521.75;4999151;28;20254;-84
2021/10/14 01:02:52;;;;;;;5.03;4.30;;;;;;;8.28;73.98;96518.06;4999572;28;20230;-84
2021/10/14 01:05:19;;;;;;;4.53;3.87;;;;;;;8.29;73.76;96517.13;4999875;28;20210;-84
2021/10/14 01:07:48;;;;;;;5.20;4.13;;;;;;;8.31;73.50;96518.59;5007574;28;20219;-84
2021/10/14 01:10:14;;;;;;;4.33;3.93;;;;;;;8.25;73.72;96518.38;5018822;28;20213;-83
2021/10/14 01:12:47;;;;;;;4.53;4.13;;;;;;;8.25;73.93;96524.31;5019524;28;20687;-84
2021/10/14 01:15:26;;;;;;;4.90;4.00;;;;;;;8.25;74.10;96523.50;5018543;28;20207;-84
2021/10/14 01:17:57;;;;;;;5.53;3.97;;;;;;;8.23;74.22;96527.94;5019202;28;20718;-84
2021/10/14 01:20:31;;;;;;;4.27;3.87;;;;;;;8.27;73.56;96519.03;5019390;28;20298;-84
2021/10/14 01:22:58;;;;;;;4.63;4.23;;;;;;;8.25;73.50;96511.47;5019020;28;20219;-84
2021/10/14 01:25:25;;;;;;;4.63;4.20;;;;;;;8.19;73.77;96521.47;5019477;28;20202;-84
2021/10/14 01:27:57;;;;;;;4.40;4.00;;;;;;;8.14;74.13;96521.06;5019621;28;20226;-84
2021/10/14 01:38:41;;;;;;;4.40;4.00;;;;;;;8.10;73.89;96517.16;4976626;28;20228;-84
2021/10/14 01:41:18;;;;;;;4.60;4.20;;;;;;;8.11;73.87;96513.66;4981751;28;20200;-84
2021/10/14 01:46:36;;;;;;;5.47;4.20;;;;;;;8.12;73.80;96520.41;4994032;28;20207;-85
2021/10/14 01:49:05;;;;;;;6.00;4.40;;;;;;;8.07;73.78;96520.84;4999448;28;20845;-84
2021/10/14 01:52:13;;;;;;;4.30;3.90;;;;;;;8.08;73.57;96519.88;5000137;28;20294;-84
2021/10/14 01:57:54;;;;;;;4.17;3.77;;;;;;;8.06;73.67;96515.84;4958163;28;20225;-84
2021/10/14 02:00:23;;;;;;;4.17;3.77;;;;;;;8.03;74.03;96519.50;4957585;28;20239;-85
2021/10/14 02:02:56;;;;;;;6.33;4.20;;;;;;;8.04;73.79;96528.81;4957772;28;20232;-84
2021/10/14 02:08:10;;;;;;;5.23;4.40;;;;;;;8.00;74.05;96519.75;4906104;28;20232;-84
2021/10/14 02:10:52;;;;;;;5.30;4.37;;;;;;;8.03;74.11;96522.06;4958537;28;20208;-84
2021/10/14 02:13:21;;;;;;;4.83;4.33;;;;;;;8.01;74.13;96516.25;4996632;28;20658;-84
2021/10/14 02:16:09;;;;;;;5.10;4.37;;;;;;;7.97;74.14;96517.47;4999673;28;20291;-84
2021/10/14 02:18:35;;;;;;;4.10;3.70;;;;;;;7.98;73.78;96514.75;4990646;28;20326;-84
2021/10/14 02:21:17;;;;;;;4.70;4.30;;;;;;;8.00;74.23;96524.06;5003753;28;20207;-84
2021/10/14 02:26:36;;;;;;;5.67;4.70;;;;;;;7.97;74.07;96527.72;5002655;28;20211;-84
2021/10/14 02:29:16;;;;;;;6.17;4.57;;;;;;;7.98;74.42;96521.66;5003031;28;20713;-85
2021/10/14 02:31:47;;;;;;;4.47;4.07;;;;;;;7.96;74.05;96526.09;5003590;28;20199;-84
2021/10/14 02:34:26;;;;;;;5.27;4.20;;;;;;;7.89;74.38;96525.03;5002227;28;20234;-84
2021/10/14 02:36:56;;;;;;;5.07;4.57;;;;;;;7.85;74.84;96523.69;5002550;28;20230;-84
2021/10/14 02:39:22;;;;;;;4.97;4.57;;;;;;;7.85;74.81;96529.63;5003421;28;20211;-83
2021/10/14 02:41:50;;;;;;;5.27;4.37;;;;;;;7.89;74.18;96525.03;5003125;28;20203;-84
2021/10/14 02:44:17;;;;;;;4.83;4.40;;;;;;;7.79;74.94;96519.91;5002185;28;20216;-84
2021/10/14 02:46:43;;;;;;;5.27;4.70;;;;;;;7.81;74.35;96512.91;5003541;28;20203;-84
2021/10/14 02:49:09;;;;;;;4.77;4.07;;;;;;;7.75;74.77;96518.56;5002689;28;20227;-84
2021/10/14 02:51:36;;;;;;;5.10;4.57;;;;;;;7.76;75.27;96517.63;5003694;28;20203;-84
2021/10/14 02:54:02;;;;;;;5.10;4.60;;;;;;;7.76;75.41;96507.38;5003073;28;20199;-84
2021/10/14 02:56:29;;;;;;;5.20;4.70;;;;;;;7.81;75.20;96515.47;5003930;28;20214;-83
2021/10/14 02:58:57;;;;;;;5.10;4.60;;;;;;;7.84;75.13;96501.56;5003075;28;20227;-84
2021/10/14 03:01:23;;;;;;;5.63;4.70;;;;;;;7.88;75.04;96508.03;5003084;28;20214;-84
2021/10/14 03:03:50;;;;;;;6.07;4.73;;;;;;;7.88;74.76;96500.34;5002400;28;20231;-84
2021/10/14 03:06:16;;;;;;;4.60;4.20;;;;;;;7.87;74.81;96502.09;5002279;28;20666;-84
2021/10/14 03:08:42;;;;;;;5.97;5.37;;;;;;;7.87;75.15;96509.00;5018416;28;20260;-84
2021/10/14 03:11:09;;;;;;;6.07;5.40;;;;;;;7.89;74.85;96514.75;5022174;28;20682;-84
2021/10/14 03:13:35;;;;;;;5.57;4.97;;;;;;;7.86;75.58;96522.75;5022456;28;20658;-84
2021/10/14 03:16:04;;;;;;;6.40;5.30;;;;;;;7.88;75.77;96523.44;5022716;28;20203;-84
2021/10/14 03:18:31;;;;;;;6.87;5.20;;;;;;;7.89;75.41;96525.03;5022264;28;20231;-84
2021/10/14 03:20:57;;;;;;;5.43;4.93;;;;;;;7.89;75.45;96527.59;5022764;28;20202;-84
2021/10/14 03:23:23;;;;;;;5.90;5.23;;;;;;;7.91;75.88;96521.38;5022155;28;20229;-84
2021/10/14 03:25:50;;;;;;;6.33;5.73;;;;;;;7.90;75.39;96524.06;5022379;28;20569;-84
2021/10/14 03:28:16;;;;;;;5.60;5.00;;;;;;;7.93;75.12;96528.94;5021656;28;20234;-84
2021/10/14 03:30:43;;;;;;;8.47;5.67;;;;;;;7.93;75.08;96527.19;5021934;28;20206;-84
2021/10/14 03:33:11;;;;;;;6.87;6.17;;;;;;;7.87;75.85;96532.06;5022261;28;20214;-83
2021/10/14 03:35:37;;;;;;;5.83;5.30;;;;;;;7.91;75.39;96536.75;5003552;28;20200;-85
2021/10/14 03:38:04;;;;;;;6.67;5.77;;;;;;;7.96;75.26;96537.16;5002097;28;20231;-84
2021/10/14 03:40:30;;;;;;;6.30;5.70;;;;;;;7.99;75.70;96541.22;5002556;28;20234;-84
2021/10/14 03:42:57;;;;;;;6.23;5.63;;;;;;;8.04;75.51;96544.19;5001826;28;20249;-84
2021/10/14 03:45:23;;;;;;;6.53;5.57;;;;;;;8.04;75.47;96528.81;5001197;28;20200;-84
2021/10/14 03:47:50;;;;;;;6.30;5.70;;;;;;;8.00;75.98;96529.22;5001428;28;20242;-84
2021/10/14 03:50:18;;;;;;;6.00;5.40;;;;;;;8.05;75.93;96519.34;5002228;28;20210;-84
2021/10/14 03:52:44;;;;;;;6.80;6.10;;;;;;;8.04;75.68;96523.66;5001672;28;20203;-84
2021/10/14 03:55:11;;;;;;;7.07;5.97;;;;;;;8.08;76.05;96524.22;5001185;28;20246;-84
2021/10/14 03:57:37;;;;;;;7.73;6.60;;;;;;;8.09;75.86;96528.38;5002694;28;20220;-83
2021/10/14 04:00:05;;;;;;;6.83;6.13;;;;;;;8.09;76.18;96523.25;5001693;28;20238;-83
2021/10/14 04:02:31;;;;;;;7.03;6.33;;;;;;;8.08;75.82;96519.88;5002020;28;20203;-84
2021/10/14 04:04:58;;;;;;;8.27;6.70;;;;;;;8.13;76.04;96516.88;5002504;28;20231;-84
2021/10/14 04:07:26;;;;;;;7.03;6.40;;;;;;;8.14;76.04;96523.63;5007601;28;20218;-83
2021/10/14 04:09:52;;;;;;;7.77;6.97;;;;;;;8.07;76.43;96527.72;5021436;28;20217;-83
2021/10/14 04:12:18;;;;;;;7.17;6.47;;;;;;;8.11;76.04;96534.16;5022015;28;20211;-82
2021/10/14 04:14:45;;;;;;;8.00;7.20;;;;;;;8.13;76.11;96537.41;5021295;28;20245;-83
2021/10/14 04:17:11;;;;;;;7.57;6.80;;;;;;;8.15;76.31;96543.22;5021769;28;20203;-83
2021/10/14 04:19:39;;;;;;;8.03;6.63;;;;;;;8.20;76.16;96541.06;5021606;28;20485;-84
2021/10/14 04:22:05;;;;;;;8.33;7.53;;;;;;;8.19;76.22;96545.38;5021029;28;20206;-83
2021/10/14 04:24:34;;;;;;;7.87;7.07;;;;;;;8.19;75.91;96539.44;5021013;28;20222;-83
2021/10/14 04:27:01;;;;;;;7.27;6.57;;;;;;;8.20;75.84;96534.16;5019654;28;20214;-83
2021/10/14 04:29:27;;;;;;;8.57;7.10;;;;;;;8.18;75.81;96527.56;5018559;28;20211;-82
2021/10/14 04:31:54;;;;;;;7.93;7.13;;;;;;;8.14;76.33;96527.00;5018638;28;20206;-84
2021/10/14 04:34:21;;;;;;;8.57;7.63;;;;;;;8.19;76.04;96529.16;5005591;28;20226;-84
2021/10/14 04:36:47;;;;;;;8.87;7.23;;;;;;;8.13;76.06;96524.59;4998078;28;20203;-84
2021/10/14 04:39:15;;;;;;;9.13;6.83;;;;;;;8.14;76.25;96529.56;4998867;28;20219;-84
2021/10/14 04:41:44;;;;;;;7.90;7.17;;;;;;;8.14;76.22;96523.63;5005623;28;20195;-84
2021/10/14 04:44:11;;;;;;;10.10;7.50;;;;;;;7.98;76.87;96519.09;5018145;28;20237;-84
2021/10/14 04:46:37;;;;;;;8.97;7.60;;;;;;;8.01;76.99;96525.69;5021257;28;20199;-83
2021/10/14 04:49:04;;;;;;;7.97;7.27;;;;;;;8.04;76.83;96531.38;5018663;28;20223;-84
2021/10/14 04:51:30;;;;;;;8.47;7.63;;;;;;;8.08;76.46;96527.56;5002556;28;20203;-84
2021/10/14 04:53:57;;;;;;;8.60;7.70;;;;;;;8.10;76.79;96528.22;4999995;28;20200;-84
2021/10/14 04:56:23;;;;;;;9.40;8.40;;;;;;;8.11;76.22;96531.59;4999468;28;20685;-83
2021/10/14 04:58:51;;;;;;;9.63;7.57;;;;;;;8.10;76.03;96528.22;4999194;28;20732;-83
2021/10/14 05:01:17;;;;;;;9.23;8.23;;;;;;;8.11;76.18;96522.16;4999328;28;20209;-82
2021/10/14 05:03:44;;;;;;;9.50;8.10;;;;;;;8.08;76.57;96526.78;4999246;28;20227;-84
2021/10/14 05:06:10;;;;;;;8.90;8.00;;;;;;;8.07;76.69;96532.84;4999670;28;20207;-84
2021/10/14 05:08:37;;;;;;;9.47;8.43;;;;;;;8.08;76.34;96529.34;5015530;28;20249;-84
2021/10/14 05:11:04;;;;;;;8.77;7.77;;;;;;;8.01;77.15;96530.81;5018813;28;20226;-84
2021/10/14 05:13:31;;;;;;;10.43;8.73;;;;;;;8.06;76.43;96538.94;5018123;28;20266;-83
2021/10/14 05:15:59;;;;;;;9.63;8.57;;;;;;;8.05;76.49;96537.31;5017987;28;20231;-83
2021/10/14 05:18:26;;;;;;;9.67;8.33;;;;;;;8.08;76.68;96539.59;5012453;28;20235;-83
2021/10/14 05:20:53;;;;;;;10.23;8.03;;;;;;;8.09;76.65;96533.50;4999173;28;20287;-84
2021/10/14 05:26:14;;;;;;;10.40;8.17;;;;;;;8.08;76.38;96537.03;4995344;28;20257;-84
2021/10/14 05:28:40;;;;;;;8.77;7.27;;;;;;;8.10;76.38;96546.19;4998836;28;20904;-84
2021/10/14 05:31:10;;;;;;;8.40;7.47;;;;;;;8.10;76.36;96532.56;4998173;28;20210;-84
2021/10/14 05:36:28;;;;;;;10.40;7.73;;;;;;;8.07;76.49;96540.53;4990956;28;20211;-84
2021/10/14 05:38:54;;;;;;;9.10;7.63;;;;;;;8.09;76.00;96547.13;4998358;28;20594;-83
2021/10/14 05:41:21;;;;;;;10.93;8.10;;;;;;;8.09;75.80;96544.56;5004023;28;20202;-84
2021/10/14 05:43:47;;;;;;;10.77;7.83;;;;;;;8.10;75.81;96546.19;5017031;28;20230;-84
2021/10/14 05:46:15;;;;;;;9.80;8.00;;;;;;;8.12;76.09;96549.44;5017549;28;20206;-84
2021/10/14 05:48:41;;;;;;;8.70;7.67;;;;;;;8.15;76.00;96561.97;5017328;28;20230;-84
2021/10/14 05:51:08;;;;;;;8.73;7.83;;;;;;;8.13;76.61;96557.94;5017111;28;20252;-84
2021/10/14 05:53:34;;;;;;;9.60;7.60;;;;;;;8.14;76.45;96559.56;5007864;28;20196;-84
2021/10/14 05:56:01;;;;;;;25.73;21.17;;;;;;;8.20;76.00;96571.84;5010089;28;20203;-84
2021/10/14 05:58:27;;;;;;;16.07;14.37;;;;;;;8.22;75.77;96568.19;5019664;28;20219;-84
2021/10/14 06:00:55;;;;;;;11.03;9.27;;;;;;;8.21;75.97;96568.31;5010724;28;20231;-84
2021/10/14 06:03:23;;;;;;;9.87;8.23;;;;;;;8.22;75.56;96567.38;5000236;28;20593;-84
2021/10/14 06:05:50;;;;;;;10.40;8.00;;;;;;;8.22;75.62;96567.38;5000396;28;20213;-84
2021/10/14 06:08:16;;;;;;;11.73;8.20;;;;;;;8.25;75.74;96567.91;5000606;28;20219;-84
2021/10/14 06:10:43;;;;;;;8.57;7.67;;;;;;;8.26;75.41;96566.97;5021419;28;20203;-83
2021/10/14 06:13:09;;;;;;;10.83;8.30;;;;;;;8.23;75.63;96569.00;5017417;28;20203;-83
2021/10/14 06:15:36;;;;;;;8.73;7.93;;;;;;;8.21;75.55;96571.72;5014598;28;20199;-84
2021/10/14 06:18:02;;;;;;;9.50;8.47;;;;;;;8.13;76.04;96574.13;5009732;28;20225;-84
2021/10/14 06:20:30;;;;;;;10.57;8.47;;;;;;;8.16;76.01;96566.16;5020574;28;20314;-84
2021/10/14 06:22:56;;;;;;;9.90;8.37;;;;;;;8.19;76.43;96572.78;5009952;28;20222;-84
2021/10/14 06:25:23;;;;;;;15.20;8.30;;;;;;;8.23;76.03;96574.13;5001414;28;20271;-84
2021/10/14 06:27:49;;;;;;;8.80;7.90;;;;;;;8.28;76.07;96577.88;4999553;28;20223;-83
2021/10/14 06:30:16;;;;;;;9.43;8.03;;;;;;;8.27;75.75;96583.97;5000611;28;20215;-84
2021/10/14 06:32:42;;;;;;;9.47;8.20;;;;;;;8.30;75.82;96581.13;5017172;28;20190;-84
2021/10/14 06:35:09;;;;;;;8.93;7.87;;;;;;;8.36;75.31;96581.56;5018279;28;20199;-84
2021/10/14 06:37:37;;;;;;;9.03;7.50;;;;;;;8.40;75.37;96582.91;5011322;28;20215;-84
2021/10/14 06:40:04;;;;;;;10.80;8.37;;;;;;;8.48;74.96;96588.13;4998150;28;20207;-83
2021/10/14 06:42:30;;;;;;;8.93;7.53;;;;;;;8.51;74.71;96586.13;4998310;28;20211;-84
2021/10/14 06:44:57;;;;;;;9.13;7.70;;;;;;;8.55;75.10;96591.78;4998552;28;20223;-83
2021/10/14 06:47:23;;;;;;;9.30;7.70;;;;;;;8.51;75.46;96590.44;5015778;28;20225;-83
2021/10/14 06:49:50;;;;;;;8.77;7.77;;;;;;;8.50;75.17;96584.50;5001716;28;20210;-84
2021/10/14 06:52:16;;;;;;;10.00;8.30;;;;;;;8.58;74.88;96582.06;4998810;28;20518;-84
2021/10/14 06:54:44;;;;;;;11.97;8.67;;;;;;;8.47;74.88;96584.75;4997776;28;20208;-84
2021/10/14 06:57:11;;;;;;;9.83;7.97;;;;;;;8.52;74.75;96592.06;4999143;28;20204;-84
2021/10/14 06:59:47;;;;;;;9.00;8.10;;;;;;;8.45;74.30;96583.31;4999556;28;20637;-84
2021/10/14 07:02:36;;;;;;;;;;;;;;;;;;;;;
2021/10/14 07:05:04;;;;;;;10.43;7.87;;;;;;;8.50;74.82;96599.09;4996769;28;20511;-83
2021/10/14 07:07:31;;;;;;;9.37;8.03;;;;;;;8.55;74.88;96599.47;4999393;28;20219;-83
2021/10/14 07:09:58;;;;;;;19.97;16.13;;;;;;;8.57;75.07;96603.53;4996915;28;20221;-84
2021/10/14 07:12:29;;;;;;;10.27;8.17;;;;;;;8.59;74.94;96599.06;4996641;28;20210;-83
2021/10/14 07:14:56;;;;;;;8.40;7.47;;;;;;;8.61;75.16;96594.63;4997914;28;20254;-84
2021/10/14 07:17:22;;;;;;;9.00;7.40;;;;;;;8.60;74.78;96608.41;4997445;28;20228;-84
2021/10/14 07:19:49;;;;;;;10.30;8.13;;;;;;;8.66;74.73;96597.56;4997954;28;20214;-83
2021/10/14 07:22:17;;;;;;;9.67;7.53;;;;;;;8.69;75.04;96595.66;4998027;28;20212;-84
2021/10/14 07:24:44;;;;;;;9.57;8.03;;;;;;;8.77;74.90;96593.22;4998545;28;20304;-84
2021/10/14 07:27:12;;;;;;;8.40;7.53;;;;;;;8.88;74.88;96586.13;4997922;28;20203;-84
2021/10/14 07:29:38;;;;;;;10.83;7.73;;;;;;;8.90;74.37;96591.13;4997997;28;20207;-83
2021/10/14 07:32:06;;;;;;;9.60;7.53;;;;;;;8.93;73.94;96596.00;4998576;28;20212;-84
2021/10/14 07:34:33;;;;;;;8.07;7.23;;;;;;;9.02;73.65;96589.22;5014272;28;20202;-84
2021/10/14 07:36:59;;;;;;;8.80;7.37;;;;;;;8.97;73.90;96594.75;5018123;28;20205;-84
2021/10/14 07:39:26;;;;;;;8.13;7.17;;;;;;;8.93;74.14;96603.69;5017611;28;20206;-84
2021/10/14 07:41:52;;;;;;;9.63;7.30;;;;;;;8.85;74.25;96594.09;5017407;28;20555;-84
2021/10/14 07:44:20;;;;;;;9.10;7.27;;;;;;;8.92;74.04;96605.44;5018299;28;20227;-84
2021/10/14 07:46:47;;;;;;;7.43;6.60;;;;;;;8.94;73.97;96601.00;5019074;28;20202;-84
2021/10/14 07:49:15;;;;;;;8.53;6.77;;;;;;;8.98;73.86;96609.22;5019256;28;20223;-84
2021/10/14 07:51:42;;;;;;;8.00;6.47;;;;;;;8.92;74.01;96604.63;5019071;28;20207;-84
2021/10/14 07:54:08;;;;;;;8.87;6.53;;;;;;;8.89;74.17;96599.78;5018799;28;20736;-84
2021/10/14 07:56:35;;;;;;;7.97;6.97;;;;;;;9.00;73.91;96595.28;5018685;28;20203;-84
2021/10/14 07:59:03;;;;;;;7.73;6.40;;;;;;;8.95;73.67;96597.47;5018336;28;20226;-84
2021/10/14 08:01:31;;;;;;;6.93;6.23;;;;;;;9.00;73.73;96595.28;5018670;28;20213;-84
2021/10/14 08:03:57;;;;;;;7.30;5.80;;;;;;;8.99;73.85;96587.72;5006888;28;20667;-84
2021/10/14 08:06:24;;;;;;;6.93;6.10;;;;;;;8.99;73.33;96591.09;5001030;28;20230;-84
2021/10/14 08:08:50;;;;;;;7.97;5.90;;;;;;;9.07;73.10;96592.13;4999577;28;20235;-84
2021/10/14 08:11:17;;;;;;;6.60;5.90;;;;;;;9.20;73.42;96590.06;4998465;28;20207;-84
2021/10/14 08:13:43;;;;;;;9.13;6.10;;;;;;;9.25;72.49;96590.41;4997513;28;20200;-84
2021/10/14 08:16:10;;;;;;;7.73;5.40;;;;;;;9.22;72.57;96583.03;4995790;28;20574;-84
2021/10/14 08:18:38;;;;;;;5.40;4.80;;;;;;;9.20;72.34;96593.44;4996136;28;20254;-84
2021/10/14 08:21:04;;;;;;;5.67;5.07;;;;;;;9.32;71.51;96589.72;4996686;28;20204;-84
2021/10/14 08:23:31;;;;;;;5.10;4.70;;;;;;;9.44;71.31;96582.59;4996068;28;20671;-83
2021/10/14 08:25:57;;;;;;;6.20;4.63;;;;;;;9.46;71.09;96590.16;4995761;28;20724;-84
2021/10/14 08:28:26;;;;;;;5.33;4.30;;;;;;;9.45;71.18;96589.38;4994752;28;20219;-84
2021/10/14 08:30:52;;;;;;;7.40;4.30;;;;;;;9.52;70.68;96594.75;4995615;28;20211;-84
2021/10/14 08:33:19;;;;;;;4.30;3.90;;;;;;;9.55;71.02;96591.88;4995147;28;20208;-84
2021/10/14 08:35:47;;;;;;;4.37;3.97;;;;;;;9.57;70.53;96584.84;4996480;28;20199;-84
2021/10/14 08:38:16;;;;;;;4.77;4.27;;;;;;;9.67;70.59;96588.13;4995173;28;20234;-84
2021/10/14 08:40:43;;;;;;;4.37;3.97;;;;;;;9.74;69.90;96584.03;4996799;28;20207;-83
2021/10/14 08:43:14;;;;;;;4.57;4.10;;;;;;;9.88;70.13;96588.66;4996096;28;20207;-84
2021/10/14 08:45:42;;;;;;;4.67;3.70;;;;;;;9.85;69.08;96580.44;4995245;28;20227;-84
2021/10/14 08:48:08;;;;;;;5.33;4.83;;;;;;;9.92;68.86;96590.00;4996003;28;20223;-84
2021/10/14 08:50:37;;;;;;;4.97;4.13;;;;;;;9.97;69.12;96590.38;4996235;28;20203;-84
2021/10/14 08:53:05;;;;;;;3.57;3.27;;;;;;;9.92;68.61;96587.44;4995727;28;20200;-84
2021/10/14 08:55:35;;;;;;;3.33;3.03;;;;;;;9.94;68.83;96589.84;4994845;28;20215;-84
2021/10/14 08:58:01;;;;;;;3.47;3.13;;;;;;;9.94;67.52;96588.09;4995032;28;20215;-84
2021/10/14 09:00:28;;;;;;;3.30;3.00;;;;;;;10.07;68.01;96590.28;4994232;28;20231;-84
2021/10/14 09:02:55;;;;;;;3.17;2.70;;;;;;;10.14;67.37;96598.22;5000402;28;20587;-84
2021/10/14 09:05:22;;;;;;;5.17;2.90;;;;;;;10.12;67.28;96594.97;5014342;28;20236;-84
2021/10/14 09:07:50;;;;;;;3.20;2.90;;;;;;;10.20;67.85;96592.53;5014140;28;20223;-84
2021/10/14 09:10:18;;;;;;;3.10;2.80;;;;;;;10.23;67.23;96582.72;5014617;28;20298;-83
2021/10/14 09:12:47;;;;;;;3.73;3.07;;;;;;;10.28;67.01;96577.13;5014805;28;20206;-84
2021/10/14 09:15:15;;;;;;;4.17;3.00;;;;;;;10.27;67.01;96576.31;5014540;28;20202;-84
2021/10/14 09:17:47;;;;;;;3.33;3.03;;;;;;;10.31;65.62;96575.06;5014627;28;20230;-84
2021/10/14 09:20:33;;;;;;;4.77;3.10;;;;;;;10.43;65.95;96574.81;5015832;28;20210;-83
2021/10/14 09:23:02;;;;;;;4.60;3.33;;;;;;;10.58;66.08;96576.66;5015507;28;20199;-83
2021/10/14 09:25:35;;;;;;;4.37;2.90;;;;;;;10.53;66.28;96571.19;5014484;28;20235;-84
2021/10/14 09:28:17;;;;;;;3.50;3.13;;;;;;;10.64;65.97;96568.34;5015102;28;20219;-84
2021/10/14 09:30:50;;;;;;;3.83;3.17;;;;;;;10.67;64.79;96574.97;5004519;28;20211;-83
2021/10/14 09:33:28;;;;;;;3.33;3.03;;;;;;;10.75;65.41;96569.88;4994686;28;20192;-83
2021/10/14 09:35:54;;;;;;;3.30;3.00;;;;;;;10.70;63.91;96569.50;4993388;28;20555;-84
2021/10/14 09:38:31;;;;;;;2.97;2.77;;;;;;;10.76;63.66;96568.91;4993545;28;20216;-84
2021/10/14 09:41:02;;;;;;;3.17;2.63;;;;;;;10.88;63.69;96561.69;4993634;28;20721;-84
2021/10/14 09:43:30;;;;;;;3.13;2.83;;;;;;;10.93;64.28;96567.22;4993783;28;20234;-84
2021/10/14 09:45:56;;;;;;;2.90;2.63;;;;;;;10.98;63.99;96567.53;4993327;28;20629;-84
2021/10/14 09:48:23;;;;;;;3.17;2.87;;;;;;;11.05;63.36;96571.94;4993147;28;20429;-84
2021/10/14 09:50:49;;;;;;;3.50;2.90;;;;;;;11.09;64.89;96567.28;4993870;28;20207;-84
2021/10/14 09:53:17;;;;;;;4.77;2.90;;;;;;;11.06;63.04;96570.97;4993517;28;20213;-84
2021/10/14 09:55:45;;;;;;;5.47;4.07;;;;;;;11.11;63.16;96573.09;4993492;28;20200;-84
2021/10/14 09:58:13;;;;;;;4.30;3.13;;;;;;;11.13;62.85;96563.44;4993360;28;20234;-84
2021/10/14 10:00:41;;;;;;;3.97;2.93;;;;;;;11.15;63.18;96569.25;4994475;28;20238;-84
2021/10/14 10:03:09;;;;;;;3.47;3.17;;;;;;;11.07;63.64;96570.00;5000210;28;20252;-84
2021/10/14 10:05:39;;;;;;;4.07;3.50;;;;;;;11.08;63.47;96565.66;5013431;28;20226;-84
2021/10/14 10:08:09;;;;;;;3.93;3.53;;;;;;;10.98;63.40;96568.34;5012744;28;20223;-84
2021/10/14 10:10:37;;;;;;;4.80;4.30;;;;;;;11.00;63.19;96563.03;5000327;28;20200;-84
2021/10/14 10:13:05;;;;;;;4.83;3.60;;;;;;;11.00;64.14;96566.41;5004863;28;20199;-84
2021/10/14 10:15:40;;;;;;;3.77;3.20;;;;;;;10.97;64.63;96560.75;5006360;28;20204;-84
2021/10/14 10:18:40;;;;;;;3.80;3.50;;;;;;;10.93;63.15;96568.03;4992863;28;20623;-84
2021/10/14 10:21:09;;;;;;;4.00;3.30;;;;;;;10.85;63.79;96569.72;5007234;28;20662;-84
2021/10/14 10:23:47;;;;;;;4.40;3.47;;;;;;;10.90;63.82;96562.34;5011787;28;20298;-84
2021/10/14 10:26:47;;;;;;;3.73;3.43;;;;;;;11.04;64.44;96559.19;5004200;28;20226;-84
2021/10/14 10:29:52;;;;;;;3.90;3.60;;;;;;;11.06;63.39;96565.81;4996170;28;20747;-83
2021/10/14 10:32:24;;;;;;;3.93;3.53;;;;;;;11.02;63.42;96564.50;4974072;28;20414;-84
2021/10/14 10:34:56;;;;;;;4.20;3.80;;;;;;;10.91;62.60;96561.41;5007803;28;20239;-83
2021/10/14 10:37:32;;;;;;;4.03;3.50;;;;;;;10.88;63.13;96561.69;5013456;28;20697;-84
2021/10/14 10:40:02;;;;;;;3.53;3.23;;;;;;;11.00;63.99;96565.63;5014431;28;20260;-83
2021/10/14 10:42:30;;;;;;;8.63;7.60;;;;;;;11.08;63.27;96557.94;5007520;28;20203;-84
2021/10/14 10:45:07;;;;;;;8.63;7.73;;;;;;;11.23;63.42;96550.41;4997440;28;20828;-84
2021/10/14 10:47:48;;;;;;;6.53;5.07;;;;;;;11.39;63.74;96550.44;4997677;28;20231;-84
2021/10/14 10:50:17;;;;;;;4.83;3.37;;;;;;;11.43;62.72;96539.66;4997507;28;20225;-84
2021/10/14 10:52:46;;;;;;;3.53;3.23;;;;;;;11.51;61.78;96540.66;4997253;28;20215;-84
2021/10/14 10:55:15;;;;;;;3.53;3.10;;;;;;;11.51;61.62;96540.66;4996978;28;20234;-84
2021/10/14 10:57:45;;;;;;;3.00;2.50;;;;;;;11.51;60.62;96527.75;4997481;28;20253;-83
2021/10/14 11:00:13;;;;;;;3.13;2.83;;;;;;;11.51;61.01;96522.59;5010929;28;20250;-84
2021/10/14 11:02:39;;;;;;;3.20;2.90;;;;;;;11.52;60.72;96526.78;5017011;28;20670;-84
2021/10/14 11:05:08;;;;;;;3.87;2.80;;;;;;;11.51;61.27;96525.97;5017243;28;20203;-83
2021/10/14 11:07:35;;;;;;;5.43;3.00;;;;;;;11.55;60.89;96522.09;5016658;28;20226;-82
2021/10/14 11:10:01;;;;;;;5.37;3.27;;;;;;;11.66;60.62;96518.41;5016805;28;20226;-83
2021/10/14 11:12:28;;;;;;;4.07;3.37;;;;;;;11.83;60.79;96524.41;5017815;28;20207;-83
2021/10/14 11:14:54;;;;;;;3.77;3.20;;;;;;;11.99;60.48;96511.50;5016207;28;20825;-83
2021/10/14 11:17:24;;;;;;;4.67;2.80;;;;;;;12.12;60.17;96509.25;5016151;28;20223;-84
2021/10/14 11:20:05;;;;;;;3.47;3.10;;;;;;;12.19;59.34;96506.81;4998703;28;20265;-84
2021/10/14 11:22:35;;;;;;;3.50;2.97;;;;;;;12.26;58.93;96505.19;4995857;28;20577;-85
2021/10/14 11:25:14;;;;;;;3.87;2.77;;;;;;;12.37;59.51;96495.31;4996266;28;20203;-84
2021/10/14 11:27:44;;;;;;;3.53;2.87;;;;;;;12.40;59.22;96495.00;4996699;28;20223;-83
2021/10/14 11:30:16;;;;;;;4.03;2.90;;;;;;;12.52;58.42;96492.84;5000986;28;20222;-84
2021/10/14 11:32:49;;;;;;;2.87;2.50;;;;;;;12.70;58.56;96488.28;5016004;28;20268;-84
2021/10/14 11:35:15;;;;;;;3.30;2.63;;;;;;;12.74;56.77;96486.16;5014972;28;20871;-84
2021/10/14 11:37:43;;;;;;;3.20;2.20;;;;;;;12.67;55.89;96491.22;5015193;28;20579;-84
2021/10/14 11:40:10;;;;;;;3.30;1.90;;;;;;;12.64;55.05;96482.97;5015686;28;20199;-83
2021/10/14 11:42:37;;;;;;;3.53;2.30;;;;;;;12.61;55.38;96478.16;5015875;28;20211;-84
2021/10/14 11:45:04;;;;;;;4.90;3.87;;;;;;;12.57;55.21;96477.66;5015100;28;20211;-84
2021/10/14 11:47:30;;;;;;;7.20;6.10;;;;;;;12.57;54.92;96475.09;5015674;28;20229;-84
2021/10/14 11:50:01;;;;;;;3.77;2.43;;;;;;;12.67;55.46;96469.75;5015510;28;20581;-84
2021/10/14 11:52:27;;;;;;;3.10;2.10;;;;;;;12.71;55.57;96465.81;5015301;28;20207;-84
2021/10/14 11:55:01;;;;;;;3.50;2.20;;;;;;;12.76;55.08;96463.53;5016924;28;20207;-84
2021/10/14 11:57:30;;;;;;;3.13;2.20;;;;;;;12.77;55.16;96455.63;5027664;28;20238;-84
2021/10/14 11:59:57;;;;;;;2.77;2.00;;;;;;;12.74;55.24;96460.31;5013262;28;20291;-84
2021/10/14 12:02:25;;;;;;;3.17;2.17;;;;;;;12.74;55.87;96458.53;4996703;28;20211;-84
2021/10/14 12:04:53;;;;;;;3.17;2.03;;;;;;;12.70;54.30;96459.84;4996217;28;20224;-84
2021/10/14 12:07:22;;;;;;;2.03;1.83;;;;;;;12.75;54.82;96449.00;4996147;28;20231;-84
2021/10/14 12:09:49;;;;;;;3.07;1.93;;;;;;;12.77;54.43;96450.47;4995856;28;20216;-83
2021/10/14 12:12:19;;;;;;;2.50;2.30;;;;;;;12.80;55.22;96449.31;4995838;28;20585;-84
2021/10/14 12:14:46;;;;;;;3.03;2.10;;;;;;;12.79;54.43;96448.50;4995289;28;20254;-84